ADDS METAR Data INFO
IDs: Format: Raw Decoded Include TAF

Data at: 1546 UTC 12 Dec 2017

KJTC 121535Z AUTO 00000KT 10SM CLR M01/M24 A3047 RMK AO2
KJTC 121515Z AUTO 00000KT 10SM CLR M04/M24 A3047 RMK AO2
KJTC 121455Z AUTO 00000KT 6SM HZ CLR M05/M24 A3047 RMK AO2
KJTC 121435Z AUTO 12004KT 10SM CLR M04/M25 A3047 RMK AO2
KJTC 121415Z AUTO 18004KT 10SM CLR M09/M24 A3047 RMK AO2
KJTC 121355Z AUTO VRB04G10KT 10SM CLR M06/M25 A3047 RMK AO2
KJTC 121335Z AUTO 20007KT 10SM CLR M07/M25 A3047 RMK AO2
KJTC 121315Z AUTO 20007KT 10SM CLR M06/M25 A3047 RMK AO2
KJTC 121255Z AUTO 00000KT 10SM CLR M08/M25 A3047 RMK AO2
KJTC 121235Z AUTO 00000KT 10SM CLR M08/M25 A3047 RMK AO2
KJTC 121215Z AUTO 00000KT 10SM CLR M08/M25 A3047 RMK AO2
KJTC 121155Z AUTO 21005KT 10SM CLR M07/M25 A3047 RMK AO2
KJTC 121135Z AUTO 20006KT 10SM CLR M06/M25 A3047 RMK AO2
KJTC 121115Z AUTO 19005G11KT 10SM CLR M06/M25 A3048 RMK AO2
KJTC 121055Z AUTO 20008KT 10SM CLR M07/M26 A3048 RMK AO2
KJTC 121035Z AUTO 20009KT 10SM CLR M06/M25 A3048 RMK AO2
KJTC 121015Z AUTO 21012KT 10SM CLR M07/M25 A3048 RMK AO2
KJTC 120955Z AUTO 19008KT 10SM CLR M06/M26 A3048 RMK AO2
KJTC 120935Z AUTO 21011KT 10SM CLR M05/M25 A3048 RMK AO2
KJTC 120915Z AUTO 21006KT 9SM -SN CLR M08/M26 A3048 RMK AO2
KJTC 120855Z AUTO 00000KT 10SM CLR M08/M26 A3048 RMK AO2
KJTC 120835Z AUTO 00000KT 10SM CLR M04/M26 A3047 RMK AO2
KJTC 120815Z AUTO 00000KT 10SM CLR M08/M25 A3047 RMK AO2
KJTC 120755Z AUTO 19006KT 10SM CLR M05/M26 A3047 RMK AO2
KJTC 120735Z AUTO 13003KT 10SM CLR M07/M26 A3047 RMK AO2
KJTC 120715Z AUTO 00000KT 10SM CLR M06/M26 A3047 RMK AO2
KJTC 120655Z AUTO 19006KT 10SM CLR M05/M26 A3047 RMK AO2
KJTC 120635Z AUTO 20008KT 10SM CLR M05/M26 A3048 RMK AO2
KJTC 120615Z AUTO 19009KT 10SM CLR M05/M26 A3047 RMK AO2
KJTC 120555Z AUTO 22010KT 10SM CLR M06/M26 A3047 RMK AO2
KJTC 120535Z AUTO 22008KT 10SM CLR M06/M26 A3047 RMK AO2
KJTC 120515Z AUTO 21007KT 10SM CLR M04/M25 A3047 RMK AO2
KJTC 120455Z AUTO 20006KT 10SM CLR M06/M25 A3047 RMK AO2
KJTC 120435Z AUTO 18005KT 10SM CLR M02/M25 A3047 RMK AO2
KJTC 120415Z AUTO 00000KT 10SM CLR M04/M24 A3046 RMK AO2
KJTC 120355Z AUTO 20005KT 10SM CLR M04/M23 A3046 RMK AO2
KJTC 120335Z AUTO 21007KT 10SM -UP CLR M03/M23 A3046 RMK AO2
KJTC 120315Z AUTO 23003KT 10SM CLR M03/M23 A3046 RMK AO2
KJTC 120255Z AUTO 22004KT 10SM CLR M02/M22 A3045 RMK AO2
KJTC 120235Z AUTO 00000KT 10SM CLR M00/M19 A3045 RMK AO2
KJTC 120215Z AUTO 00000KT 10SM CLR 01/M19 A3045 RMK AO2
KJTC 120155Z AUTO 28003KT 10SM CLR 00/M20 A3045 RMK AO2
KJTC 120135Z AUTO 22008KT 10SM -UP CLR M00/M20 A3044 RMK AO2
KJTC 120115Z AUTO 22005KT 10SM -UP CLR 02/M20 A3044 RMK AO2
KJTC 120055Z AUTO 00000KT 10SM CLR 02/M19 A3044 RMK AO2
KJTC 120035Z AUTO 09003KT 10SM CLR 06/M18 A3043 RMK AO2
KJTC 120015Z AUTO 00000KT 10SM CLR 06/M19 A3042 RMK AO2
KJTC 112355Z AUTO 00000KT 10SM CLR 07/M18 A3043 RMK AO2
KJTC 112335Z AUTO 00000KT 10SM CLR 07/M18 A3042 RMK AO2
KJTC 112315Z AUTO 00000KT 10SM CLR 07/M18 A3043 RMK AO2
KJTC 112255Z AUTO 31004KT 10SM CLR 08/M18 A3043 RMK AO2
KJTC 112235Z AUTO VRB04KT 10SM CLR 08/M19 A3043 RMK AO2
KJTC 112215Z AUTO 33007KT 10SM CLR 08/M19 A3043 RMK AO2
KJTC 112155Z AUTO 35008KT 10SM CLR 09/M19 A3043 RMK AO2
KJTC 112135Z AUTO 36009KT 10SM CLR 10/M19 A3042 RMK AO2
KJTC 112115Z AUTO 35009KT 10SM CLR 11/M19 A3041 RMK AO2
KJTC 112055Z AUTO 32006KT 10SM CLR 10/M19 A3041 RMK AO2
KJTC 112035Z AUTO 34009KT 10SM CLR 10/M19 A3042 RMK AO2
KJTC 112015Z AUTO 33009KT 10SM CLR 11/M18 A3042 RMK AO2
KJTC 111955Z AUTO 35007G14KT 10SM CLR 12/M19 A3042 RMK AO2
KJTC 111935Z AUTO 35009KT 10SM CLR 12/M19 A3043 RMK AO2
KJTC 111915Z AUTO 01008KT 10SM CLR 12/M20 A3044 RMK AO2
KJTC 111855Z AUTO 35007KT 10SM CLR 12/M20 A3045 RMK AO2
KJTC 111835Z AUTO 36011KT 10SM CLR 12/M19 A3046 RMK AO2
KJTC 111815Z AUTO VRB05KT 10SM CLR 13/M21 A3047 RMK AO2
KJTC 111755Z AUTO VRB03KT 10SM CLR 12/M20 A3047 RMK AO2
KJTC 111735Z AUTO 00000KT 10SM CLR 09/M20 A3047 RMK AO2
KJTC 111715Z AUTO 00000KT 10SM CLR 06/M20 A3048 RMK AO2
KJTC 111655Z AUTO 09003KT 10SM CLR 03/M19 A3048 RMK AO2
KJTC 111635Z AUTO 08004KT 10SM CLR 01/M19 A3048 RMK AO2
KJTC 111615Z AUTO 14003KT 10SM CLR 00/M18 A3048 RMK AO2
KJTC 111555Z AUTO 20004KT 10SM CLR M01/M20 A3048 RMK AO2
KJTC 111535Z AUTO 20006KT 10SM CLR M03/M20 A3049 RMK AO2
KJTC 111515Z AUTO 21005KT 10SM CLR M04/M20 A3049 RMK AO2
KJTC 111450Z AUTO 21007KT 9SM -SN CLR M06/M21 A3049 RMK AO2
KJTC 111435Z AUTO 20006KT 10SM CLR M08/M21 A3049 RMK AO2
KJTC 111415Z AUTO 3.95833304KT 10SM CLR M06/M19 A3049 RMK AO2
KJTC 111355Z AUTO 08003KT 10SM CLR M08/M17 A3048 RMK AO2
KJTC 111335Z AUTO 00000KT 10SM CLR M05/M21 A3047 RMK AO2
KJTC 111315Z AUTO 21004KT 10SM CLR M07/M21 A3047 RMK AO2
KJTC 111255Z AUTO 22007KT 10SM CLR M05/M21 A3047 RMK AO2
KJTC 111235Z AUTO 20004KT 10SM CLR M05/M20 A3046 RMK AO2
KJTC 111215Z AUTO 00000KT 10SM CLR M05/M20 A3046 RMK AO2
KJTC 111155Z AUTO 16005KT 10SM CLR M03/M20 A3045 RMK AO2
KJTC 111135Z AUTO 18005G10KT 10SM CLR M05/M19 A3045 RMK AO2
KJTC 111115Z AUTO 18007KT 10SM CLR M04/M19 A3046 RMK AO2
KJTC 111055Z AUTO 15004KT 10SM CLR M05/M19 A3047 RMK AO2
KJTC 111035Z AUTO 19004KT 10SM CLR M05/M19 A3048 RMK AO2
KJTC 111015Z AUTO 22010KT 10SM CLR M04/M19 A3048 RMK AO2
KJTC 110955Z AUTO 20009KT 10SM CLR M06/M19 A3048 RMK AO2
KJTC 110935Z AUTO 21007KT 10SM CLR M07/M20 A3049 RMK AO2
KJTC 110915Z AUTO 20004KT 10SM CLR M07/M20 A3049 RMK AO2
KJTC 110855Z AUTO 17005KT 10SM CLR M06/M20 A3049 RMK AO2
KJTC 110835Z AUTO 22010KT 10SM CLR M06/M19 A3049 RMK AO2
KJTC 110815Z AUTO 20005KT 10SM CLR M06/M20 A3048 RMK AO2
KJTC 110755Z AUTO 20006KT 10SM CLR M06/M20 A3049 RMK AO2
KJTC 110735Z AUTO 18007KT 10SM CLR M07/M20 A3049 RMK AO2
KJTC 110715Z AUTO 20006KT 10SM CLR M06/M20 A3049 RMK AO2
KJTC 110655Z AUTO 20005KT 10SM CLR M06/M20 A3049 RMK AO2
KJTC 110635Z AUTO 16003KT 10SM CLR M04/M20 A3049 RMK AO2
KJTC 110615Z AUTO 00000KT 10SM CLR M05/M21 A3049 RMK AO2
KJTC 110555Z AUTO 00000KT 10SM CLR M06/M20 A3050 RMK AO2
KJTC 110535Z AUTO 19006KT 10SM CLR M06/M20 A3050 RMK AO2
KJTC 110515Z AUTO 20006KT 10SM CLR M05/M20 A3050 RMK AO2
KJTC 110455Z AUTO 20005KT 10SM -UP CLR M05/M19 A3049 RMK AO2
KJTC 110435Z AUTO 00000KT 10SM CLR M02/M19 A3049 RMK AO2
KJTC 110415Z AUTO 00000KT 10SM CLR M04/M20 A3049 RMK AO2
KJTC 110355Z AUTO 19003KT 10SM CLR M04/M20 A3050 RMK AO2